Terminal Aerodrome Forecast
Issued by NWS

Home | Current Version | Previous Version | Graphics & Text | Print | Product List | Glossary On
Versions: 1 2 3 4 5 6 7 8 9 10 11 12 13 14 15 16 17 18 19 20 21 22 23 24 25 26 27
442
FTUS43 KLOT 271950 AAA
TAFDPA
TAF AMD
KDPA 271950Z 2720/2818 21010KT P6SM SCT025 BKN035
     FM280000 22005KT P6SM BKN040
     FM280900 VRB02KT 6SM BR BKN030
     FM281500 07006KT P6SM SCT035 BKN250=

USA.gov is the U.S. government's official web portal to all federal, state and local government web resources and services.